Time;durP1;ratioP1;P1;durP2;ratioP2;P2;SDS_P1;SDS_P2;PMS_P1;PMS_P2;Temp;Humidity;BMP_temperature;BMP_pressure;BME280_temperature;BME280_humidity;BME280_pressure;Samples;Min_cycle;Max_cycle;Signal;HPM_P1;HPM_P2
2022/10/25 00:00:39;;;;;;;3.80;1.90;;;;;;;14.21;89.63;100061.41;4986323;28;20230;-80
2022/10/25 00:03:06;;;;;;;2.40;1.30;;;;;;;14.19;89.91;100063.25;4985459;28;20666;-82
2022/10/25 00:05:32;;;;;;;2.30;0.80;;;;;;;14.18;90.13;100065.03;4985525;28;20571;-80
2022/10/25 00:07:59;;;;;;;3.83;1.20;;;;;;;14.13;89.37;100069.59;4982107;28;20205;-79
2022/10/25 00:10:25;;;;;;;1.90;0.60;;;;;;;14.24;89.20;100095.44;4996227;28;20209;-80
2022/10/25 00:12:52;;;;;;;4.40;0.80;;;;;;;14.15;90.74;100049.38;4996437;28;20594;-81
2022/10/25 00:15:18;;;;;;;2.07;0.60;;;;;;;13.99;92.57;100012.41;4995620;28;20212;-80
2022/10/25 00:17:46;;;;;;;4.60;0.73;;;;;;;14.07;92.85;99997.22;4995044;28;20232;-80
2022/10/25 00:20:13;;;;;;;0.73;0.40;;;;;;;14.08;93.49;99984.97;4995339;28;20275;-81
2022/10/25 00:22:40;;;;;;;1.13;0.60;;;;;;;14.18;92.95;99982.81;4995505;28;20600;-79
2022/10/25 00:25:07;;;;;;;2.70;0.60;;;;;;;14.21;92.74;99990.53;4995684;28;20212;-80
2022/10/25 00:27:35;;;;;;;2.10;0.77;;;;;;;14.09;93.22;99998.03;4995572;28;20235;-81
2022/10/25 00:30:02;;;;;;;1.80;0.60;;;;;;;14.16;93.12;99990.75;4995702;28;20220;-82
2022/10/25 00:32:28;;;;;;;2.47;1.10;;;;;;;14.19;92.60;99998.50;4995476;28;20216;-79
2022/10/25 00:34:56;;;;;;;0.67;0.50;;;;;;;14.21;92.54;100019.41;4997777;28;20216;-80
2022/10/25 00:37:23;;;;;;;1.70;0.60;;;;;;;14.09;93.13;100005.91;4999317;28;20226;-80
2022/10/25 00:39:49;;;;;;;1.73;0.67;;;;;;;14.13;93.56;99998.72;4999222;28;20220;-79
2022/10/25 00:42:21;;;;;;;1.23;0.63;;;;;;;14.15;93.61;100009.16;4999475;28;20745;-80
2022/10/25 00:44:56;;;;;;;1.63;0.70;;;;;;;14.17;93.28;99997.72;4999200;28;20212;-80
2022/10/25 00:47:43;;;;;;;1.60;0.70;;;;;;;14.19;93.31;100006.38;4999508;28;20659;-80
2022/10/25 00:50:18;;;;;;;1.73;0.60;;;;;;;14.21;92.91;100025.53;4999309;28;20577;-80
2022/10/25 00:52:47;;;;;;;2.40;0.70;;;;;;;14.02;93.79;100024.56;4998757;28;20743;-80
2022/10/25 00:55:17;;;;;;;3.27;1.00;;;;;;;14.02;93.50;100020.16;4998408;28;20245;-80
2022/10/25 00:57:48;;;;;;;1.00;0.70;;;;;;;13.76;94.38;100021.22;4999375;28;20227;-80
2022/10/25 01:00:15;;;;;;;2.63;0.80;;;;;;;13.80;94.59;100014.91;4999409;28;20197;-82
2022/10/25 01:02:42;;;;;;;2.87;0.73;;;;;;;13.91;94.68;100027.59;4999140;28;20208;-80
2022/10/25 01:05:10;;;;;;;1.27;1.00;;;;;;;13.90;95.12;100008.41;4998645;28;20217;-81
2022/10/25 01:07:38;;;;;;;1.73;0.90;;;;;;;14.03;94.80;100013.16;4998668;28;20236;-81
2022/10/25 01:10:05;;;;;;;2.17;0.83;;;;;;;14.02;95.68;100006.19;4998231;28;20202;-79
2022/10/25 01:12:32;;;;;;;2.00;1.00;;;;;;;13.93;96.88;99977.69;4998034;28;20694;-80
2022/10/25 01:14:58;;;;;;;1.07;0.80;;;;;;;13.99;96.55;99994.03;4998725;28;20604;-81
2022/10/25 01:17:34;;;;;;;2.60;1.03;;;;;;;14.03;96.38;99994.78;4998562;28;20258;-80
2022/10/25 01:20:28;;;;;;;2.83;1.20;;;;;;;13.96;96.41;100020.41;4998218;28;20208;-80
2022/10/25 01:23:04;;;;;;;3.80;1.20;;;;;;;13.96;96.74;100006.44;4997659;28;20220;-80
2022/10/25 01:25:50;;;;;;;3.17;1.00;;;;;;;13.98;96.59;99997.59;4998216;28;20209;-81
2022/10/25 01:28:28;;;;;;;1.73;1.10;;;;;;;13.89;96.57;100008.44;4997700;28;20212;-80
2022/10/25 01:31:22;;;;;;;3.10;1.00;;;;;;;13.97;96.30;100027.34;4997555;28;20209;-80
2022/10/25 01:33:55;;;;;;;0.80;0.63;;;;;;;14.02;96.14;100020.16;4997622;28;20212;-80
2022/10/25 01:36:30;;;;;;;2.57;0.97;;;;;;;14.00;95.92;100034.28;4998378;28;20240;-80
2022/10/25 01:39:05;;;;;;;1.17;0.70;;;;;;;13.95;96.05;100042.31;4998004;28;20609;-80
2022/10/25 01:41:40;;;;;;;2.10;0.80;;;;;;;13.95;95.66;100044.09;4997363;28;20324;-79
2022/10/25 01:44:19;;;;;;;4.03;0.83;;;;;;;13.88;97.27;100022.50;4997994;28;20845;-79
2022/10/25 01:46:52;;;;;;;2.63;0.80;;;;;;;13.95;97.61;100012.59;4997563;28;20237;-80
2022/10/25 01:49:25;;;;;;;2.20;0.87;;;;;;;14.01;97.29;100005.34;4996944;28;20216;-80
2022/10/25 01:51:52;;;;;;;3.80;1.17;;;;;;;14.12;97.13;100011.94;4996628;28;20208;-81
2022/10/25 01:54:21;;;;;;;2.63;1.10;;;;;;;14.12;96.96;100025.91;4997904;28;20213;-81
2022/10/25 01:57:04;;;;;;;2.20;1.00;;;;;;;14.13;97.04;100035.47;4997304;28;20236;-80
2022/10/25 01:59:45;;;;;;;3.13;1.00;;;;;;;14.18;96.96;100030.91;4997157;28;20215;-81
2022/10/25 02:02:23;;;;;;;3.07;0.80;;;;;;;14.11;97.25;100029.44;4996990;28;20236;-80
2022/10/25 02:05:00;;;;;;;2.53;0.77;;;;;;;14.15;96.95;100041.50;4996934;28;20216;-81
2022/10/25 02:07:33;;;;;;;3.60;1.27;;;;;;;14.10;97.67;100027.75;4998342;28;20250;-81
2022/10/25 02:10:07;;;;;;;3.07;1.03;;;;;;;14.17;98.13;100018.72;4997637;28;20214;-81
2022/10/25 02:12:42;;;;;;;2.40;0.90;;;;;;;14.19;97.88;100026.50;4997586;28;20209;-81
2022/10/25 02:15:13;;;;;;;0.80;0.80;;;;;;;14.19;98.37;100024.75;4997918;28;20217;-82
2022/10/25 02:17:48;;;;;;;2.63;1.00;;;;;;;14.21;98.48;100029.91;4997492;28;20237;-81
2022/10/25 02:20:20;;;;;;;2.37;1.00;;;;;;;14.22;97.93;100031.66;4997965;28;20204;-82
2022/10/25 02:22:48;;;;;;;1.63;0.77;;;;;;;14.23;98.42;100028.09;4997630;28;20217;-81
2022/10/25 02:25:16;;;;;;;2.10;1.20;;;;;;;14.26;98.16;100028.81;4997527;28;20220;-83
2022/10/25 02:27:44;;;;;;;1.47;1.10;;;;;;;14.23;98.78;100030.72;4997799;28;20232;-82
2022/10/25 02:30:11;;;;;;;2.93;1.10;;;;;;;14.10;99.38;100018.09;4997625;28;20206;-81
2022/10/25 02:32:38;;;;;;;3.63;1.17;;;;;;;14.18;99.32;100016.94;4997482;28;20220;-82
2022/10/25 02:35:13;;;;;;;3.37;1.17;;;;;;;14.18;99.35;100020.41;4997874;28;20309;-82
2022/10/25 02:37:39;;;;;;;2.20;0.93;;;;;;;14.20;99.51;100001.97;4998651;28;20277;-82
2022/10/25 02:40:08;;;;;;;1.27;0.90;;;;;;;14.17;100.00;99999.47;4998344;28;20218;-83
2022/10/25 02:42:34;;;;;;;1.87;1.13;;;;;;;14.19;100.00;100001.13;4997745;28;20229;-80
2022/10/25 02:45:00;;;;;;;3.50;1.00;;;;;;;14.20;100.00;100001.97;4998401;28;20204;-81
2022/10/25 02:47:27;;;;;;;1.83;0.97;;;;;;;14.21;100.00;100001.91;4997951;28;20266;-83
2022/10/25 02:49:53;;;;;;;1.43;1.00;;;;;;;14.24;100.00;99996.53;4997606;28;20622;-82
2022/10/25 02:52:21;;;;;;;2.83;1.43;;;;;;;14.23;100.00;100010.59;4997712;28;20692;-80
2022/10/25 02:54:48;;;;;;;2.77;1.10;;;;;;;14.24;100.00;100003.56;4997829;28;20205;-82
2022/10/25 02:57:14;;;;;;;2.60;1.10;;;;;;;14.23;100.00;100002.72;4996768;28;20733;-81
2022/10/25 02:59:40;;;;;;;3.57;1.27;;;;;;;14.25;100.00;100015.75;4997627;28;20221;-81
2022/10/25 03:02:07;;;;;;;3.53;1.30;;;;;;;14.24;99.77;100029.81;4997630;28;20288;-82
2022/10/25 03:04:33;;;;;;;3.23;1.70;;;;;;;14.23;99.42;100026.34;4998288;28;20220;-80
2022/10/25 03:07:00;;;;;;;2.50;1.43;;;;;;;14.26;99.45;100036.69;4998247;28;20240;-82
2022/10/25 03:09:28;;;;;;;2.60;1.80;;;;;;;14.26;99.71;100041.94;4998724;28;20209;-83
2022/10/25 03:11:54;;;;;;;7.47;1.80;;;;;;;14.18;99.89;100030.91;4998648;28;20205;-83
2022/10/25 03:14:21;;;;;;;3.20;1.60;;;;;;;14.22;100.00;100029.88;4998075;28;20285;-82
2022/10/25 03:16:47;;;;;;;3.57;2.03;;;;;;;14.05;100.00;100017.44;4998822;28;20229;-81
2022/10/25 03:19:13;;;;;;;4.70;1.90;;;;;;;13.94;100.00;99995.16;4998986;28;20210;-83
2022/10/25 03:21:40;;;;;;;3.10;2.10;;;;;;;14.01;100.00;99999.22;4997463;28;20243;-82
2022/10/25 03:24:07;;;;;;;5.07;1.93;;;;;;;14.04;100.00;99996.50;4998518;28;20213;-82
2022/10/25 03:26:34;;;;;;;2.30;1.70;;;;;;;14.09;100.00;99990.16;4998188;28;20240;-82
2022/10/25 03:29:01;;;;;;;4.33;2.10;;;;;;;14.12;100.00;100010.16;4997835;28;20213;-82
2022/10/25 03:31:27;;;;;;;3.50;2.17;;;;;;;14.15;100.00;100017.88;4998126;28;20206;-83
2022/10/25 03:33:54;;;;;;;3.87;2.00;;;;;;;14.22;100.00;100027.25;4998174;28;20244;-83
2022/10/25 03:36:20;;;;;;;3.50;2.17;;;;;;;14.24;100.00;100030.66;4997173;28;20745;-82
2022/10/25 03:38:47;;;;;;;2.87;1.93;;;;;;;14.19;100.00;100034.38;4998308;28;20293;-81
2022/10/25 03:41:13;;;;;;;4.00;2.40;;;;;;;14.09;100.00;100026.03;4997793;28;20209;-82
2022/10/25 03:43:41;;;;;;;4.77;2.10;;;;;;;14.16;100.00;100024.03;4998116;28;20215;-82
2022/10/25 03:46:07;;;;;;;4.73;2.50;;;;;;;14.20;100.00;100033.47;4997429;28;20244;-81
2022/10/25 03:48:34;;;;;;;4.23;2.27;;;;;;;14.20;100.00;100036.09;4998111;28;20220;-81
2022/10/25 03:51:00;;;;;;;2.80;2.47;;;;;;;14.07;100.00;100039.22;4997291;28;20233;-82
2022/10/25 03:53:27;;;;;;;5.17;3.33;;;;;;;14.04;100.00;100046.38;4997300;28;20579;-82
2022/10/25 03:55:53;;;;;;;3.43;2.97;;;;;;;14.10;100.00;100028.59;4998070;28;20212;-82
2022/10/25 03:58:20;;;;;;;4.27;2.83;;;;;;;14.15;100.00;100038.88;4997472;28;20213;-82
2022/10/25 04:00:48;;;;;;;7.10;3.13;;;;;;;13.93;100.00;100035.44;4997270;28;20213;-81
2022/10/25 04:03:14;;;;;;;3.87;2.97;;;;;;;13.99;100.00;100035.19;4985424;28;20249;-83
2022/10/25 04:05:40;;;;;;;4.80;2.93;;;;;;;13.94;100.00;100034.53;4978592;28;20209;-81
2022/10/25 04:08:07;;;;;;;7.87;3.23;;;;;;;14.05;100.00;100040.19;4978220;28;20205;-80
2022/10/25 04:10:33;;;;;;;6.40;3.20;;;;;;;14.05;100.00;100040.19;4981576;28;20200;-82
2022/10/25 04:13:00;;;;;;;3.87;2.67;;;;;;;14.10;100.00;100040.88;4982644;28;20205;-81
2022/10/25 04:15:26;;;;;;;4.20;2.40;;;;;;;14.09;100.00;100040.03;4981845;28;20209;-82
2022/10/25 04:17:54;;;;;;;5.60;2.60;;;;;;;14.09;100.00;100053.16;4982077;28;20228;-82
2022/10/25 04:20:21;;;;;;;4.37;2.83;;;;;;;14.16;100.00;100061.63;4981831;28;20214;-81
2022/10/25 04:22:53;;;;;;;5.03;2.80;;;;;;;14.21;100.00;100053.53;4982118;28;20711;-83
2022/10/25 04:25:20;;;;;;;4.07;2.60;;;;;;;14.16;100.00;100058.16;4982775;28;20233;-81
2022/10/25 04:27:47;;;;;;;6.67;2.67;;;;;;;14.04;100.00;100070.81;4981412;28;20230;-81
2022/10/25 04:30:13;;;;;;;3.27;2.93;;;;;;;13.84;100.00;100060.25;4981261;28;20216;-81
2022/10/25 04:32:39;;;;;;;5.47;3.50;;;;;;;13.89;100.00;100058.28;4981891;28;20222;-81
2022/10/25 04:35:08;;;;;;;6.73;3.37;;;;;;;14.00;100.00;100058.75;4981835;28;20206;-82
2022/10/25 04:37:35;;;;;;;5.40;3.00;;;;;;;14.07;100.00;100060.22;4981736;28;20228;-81
2022/10/25 04:40:01;;;;;;;6.73;3.40;;;;;;;13.84;100.00;100052.41;4981446;28;20216;-82
2022/10/25 04:42:28;;;;;;;6.97;2.87;;;;;;;13.88;100.00;100030.38;4980052;28;20234;-82
2022/10/25 04:44:54;;;;;;;7.03;2.90;;;;;;;13.56;100.00;100013.22;4988688;28;20208;-82
2022/10/25 04:47:21;;;;;;;3.37;2.90;;;;;;;13.65;100.00;100011.09;5028063;23;20260;-80
2022/10/25 04:49:47;;;;;;;8.03;4.03;;;;;;;13.49;100.00;100005.59;5018531;28;20744;-78
2022/10/25 04:52:15;;;;;;;7.50;3.60;;;;;;;13.44;100.00;100002.31;5019035;28;20730;-81
2022/10/25 04:54:41;;;;;;;7.37;4.20;;;;;;;13.44;100.00;100004.94;5018606;28;20233;-81
2022/10/25 04:57:08;;;;;;;10.87;3.97;;;;;;;13.57;100.00;100002.69;5013555;28;20236;-80
2022/10/25 04:59:34;;;;;;;5.07;4.17;;;;;;;13.66;100.00;100014.59;4999235;28;20221;-81
2022/10/25 05:02:00;;;;;;;5.73;4.00;;;;;;;13.66;100.00;100027.72;4998409;28;20231;-81
2022/10/25 05:04:27;;;;;;;5.90;3.93;;;;;;;13.72;100.00;100034.50;4998578;28;20209;-80
2022/10/25 05:06:53;;;;;;;5.97;5.17;;;;;;;13.80;100.00;100050.81;4998927;28;20727;-79
2022/10/25 05:09:21;;;;;;;8.60;4.50;;;;;;;13.89;100.00;100051.31;4998222;28;20212;-81
2022/10/25 05:11:48;;;;;;;6.27;4.90;;;;;;;13.90;100.00;100065.28;4997749;28;20201;-80
2022/10/25 05:14:14;;;;;;;5.83;4.77;;;;;;;13.88;100.00;100073.19;4997985;28;20218;-79
2022/10/25 05:16:41;;;;;;;7.93;5.47;;;;;;;13.96;100.00;100079.94;4998255;28;20212;-80
2022/10/25 05:19:07;;;;;;;5.43;4.93;;;;;;;13.89;100.00;100090.66;4998214;28;20206;-79
2022/10/25 05:21:34;;;;;;;6.30;5.13;;;;;;;13.67;100.00;100089.75;4997005;28;20209;-80
2022/10/25 05:24:01;;;;;;;8.20;4.97;;;;;;;13.74;100.00;100079.91;4997385;28;20739;-80
2022/10/25 05:26:30;;;;;;;5.73;4.47;;;;;;;13.85;100.00;100080.31;4997606;28;20676;-80
2022/10/25 05:28:57;;;;;;;5.20;4.70;;;;;;;13.90;100.00;100088.88;4998052;28;20216;-80
2022/10/25 05:31:25;;;;;;;7.40;4.90;;;;;;;13.95;100.00;100099.19;4997482;28;20213;-79
2022/10/25 05:33:54;;;;;;;8.63;4.50;;;;;;;13.99;100.00;100109.50;4997794;28;20686;-80
2022/10/25 05:36:21;;;;;;;4.47;3.60;;;;;;;13.81;100.00;100121.56;4997738;28;20216;-81
2022/10/25 05:38:47;;;;;;;5.47;3.90;;;;;;;13.72;100.00;100124.53;4997820;28;20233;-80
2022/10/25 05:41:16;;;;;;;4.90;4.23;;;;;;;13.63;100.00;100123.09;4996833;28;20212;-79
2022/10/25 05:43:44;;;;;;;7.53;4.67;;;;;;;13.63;100.00;100111.75;4997530;28;20229;-79
2022/10/25 05:46:13;;;;;;;4.67;3.90;;;;;;;13.69;100.00;100111.53;4996877;28;20205;-80
2022/10/25 05:48:40;;;;;;;27.00;8.70;;;;;;;13.90;100.00;100110.72;4997408;28;20241;-80
2022/10/25 05:51:11;;;;;;;6.90;5.60;;;;;;;14.05;100.00;100079.53;4997095;28;20209;-80
2022/10/25 05:53:42;;;;;;;6.93;3.97;;;;;;;14.10;100.00;100075.84;5006134;28;20204;-79
2022/10/25 05:56:08;;;;;;;10.43;4.30;;;;;;;13.89;100.00;100103.78;5017214;28;20209;-80
2022/10/25 05:58:34;;;;;;;6.47;3.73;;;;;;;13.95;100.00;100117.56;5016418;28;20236;-79
2022/10/25 06:01:02;;;;;;;8.63;4.67;;;;;;;14.08;100.00;100114.41;5003265;28;20209;-80
2022/10/25 06:03:29;;;;;;;5.97;3.80;;;;;;;14.06;100.00;100118.88;4981798;28;20318;-80
2022/10/25 06:05:59;;;;;;;6.97;3.50;;;;;;;14.02;100.00;100161.88;4976930;28;20212;-79
2022/10/25 06:08:26;;;;;;;3.63;3.07;;;;;;;14.00;100.00;100168.13;4977155;28;20572;-80
2022/10/25 06:10:52;;;;;;;8.03;4.20;;;;;;;14.09;100.00;100162.50;4976893;28;20212;-79
2022/10/25 06:13:19;;;;;;;5.30;3.43;;;;;;;14.22;100.00;100152.41;4977170;28;20205;-79
2022/10/25 06:15:45;;;;;;;6.20;3.43;;;;;;;14.24;100.00;100172.41;4977067;28;20267;-81
2022/10/25 06:18:13;;;;;;;7.30;3.67;;;;;;;14.16;100.00;100197.25;4976498;28;20237;-80
2022/10/25 06:20:39;;;;;;;5.03;3.87;;;;;;;14.27;100.00;100208.19;4976095;28;20213;-80
2022/10/25 06:23:06;;;;;;;8.37;4.00;;;;;;;14.30;100.00;100208.94;4976390;28;20241;-80
2022/10/25 06:25:32;;;;;;;5.13;3.40;;;;;;;14.36;100.00;100204.38;4977082;28;20210;-80
2022/10/25 06:27:59;;;;;;;5.03;3.53;;;;;;;14.31;100.00;100215.06;4977038;28;20623;-80
2022/10/25 06:30:25;;;;;;;3.87;2.67;;;;;;;14.34;100.00;100230.69;4977008;28;20235;-80
2022/10/25 06:32:53;;;;;;;4.67;3.33;;;;;;;14.40;100.00;100234.88;4976408;28;20294;-80
2022/10/25 06:35:21;;;;;;;7.00;2.87;;;;;;;14.46;100.00;100245.13;4976889;28;20277;-80
2022/10/25 06:37:47;;;;;;;5.43;2.90;;;;;;;14.45;100.00;100246.91;4977214;28;20231;-79
2022/10/25 06:40:14;;;;;;;4.97;2.93;;;;;;;14.51;100.00;100243.19;4976898;28;20221;-80
2022/10/25 06:42:41;;;;;;;3.67;2.80;;;;;;;14.49;100.00;100256.38;4977281;28;20230;-80
2022/10/25 06:45:09;;;;;;;4.87;3.57;;;;;;;14.55;100.00;100255.28;4976927;28;20207;-79
2022/10/25 06:47:35;;;;;;;5.07;3.43;;;;;;;14.65;100.00;100240.06;4976626;28;20257;-80
2022/10/25 06:50:02;;;;;;;9.17;3.23;;;;;;;14.67;100.00;100246.13;4976498;28;20213;-80
2022/10/25 06:52:29;;;;;;;7.90;3.20;;;;;;;14.68;100.00;100255.69;4976377;28;20228;-80
2022/10/25 06:54:56;;;;;;;5.80;3.40;;;;;;;14.64;100.00;100270.72;4975722;28;20948;-79
2022/10/25 06:57:22;;;;;;;6.40;3.53;;;;;;;14.39;99.37;100286.53;4975636;28;20236;-80
2022/10/25 06:59:49;;;;;;;4.70;3.40;;;;;;;14.42;98.98;100320.53;4975622;28;20212;-79
2022/10/25 07:02:15;;;;;;;3.73;2.83;;;;;;;14.45;98.78;100325.69;4975462;28;20210;-80
2022/10/25 07:04:41;;;;;;;4.53;2.93;;;;;;;14.56;100.00;100285.03;4975925;28;20222;-79
2022/10/25 07:07:09;;;;;;;7.63;3.87;;;;;;;14.47;100.00;100294.13;4975910;28;20236;-80
2022/10/25 07:09:36;;;;;;;4.23;3.37;;;;;;;14.54;100.00;100282.47;4976433;28;20206;-79
2022/10/25 07:12:03;;;;;;;5.57;3.30;;;;;;;14.56;100.00;100283.28;4985755;28;20606;-80
2022/10/25 07:14:29;;;;;;;5.20;3.30;;;;;;;14.55;100.00;100310.47;4985874;28;20229;-80
2022/10/25 07:16:57;;;;;;;4.47;3.30;;;;;;;14.63;100.00;100297.06;4992562;28;20977;-80
2022/10/25 07:19:23;;;;;;;4.63;3.07;;;;;;;14.67;100.00;100302.13;4995787;28;20213;-80
2022/10/25 07:21:51;;;;;;;5.67;3.00;;;;;;;14.34;99.05;100342.75;4989896;28;20593;-80
2022/10/25 07:24:18;;;;;;;9.10;3.60;;;;;;;14.40;99.43;100340.75;4990178;28;20232;-81
2022/10/25 07:26:45;;;;;;;7.57;3.47;;;;;;;14.23;99.12;100349.25;4995634;28;20239;-81
2022/10/25 07:29:12;;;;;;;4.67;3.00;;;;;;;14.38;100.00;100316.31;4996250;28;20227;-81
2022/10/25 07:31:43;;;;;;;5.43;3.23;;;;;;;14.49;100.00;100315.94;4997068;28;20446;-84
2022/10/25 07:34:11;;;;;;;6.80;4.07;;;;;;;14.52;99.31;100326.31;4995896;28;20300;-82
2022/10/25 07:36:38;;;;;;;7.17;3.97;;;;;;;14.50;98.88;100341.28;4995826;28;20213;-81
2022/10/25 07:39:04;;;;;;;6.00;3.73;;;;;;;14.47;99.27;100333.53;4994976;28;20236;-80
2022/10/25 07:41:31;;;;;;;5.57;3.60;;;;;;;14.38;98.95;100339.94;4994861;28;20441;-81
2022/10/25 07:43:59;;;;;;;7.33;3.70;;;;;;;14.50;99.02;100336.88;4995695;28;20236;-80
2022/10/25 07:46:25;;;;;;;7.03;3.60;;;;;;;14.61;99.61;100336.53;4994657;28;20210;-79
2022/10/25 07:48:52;;;;;;;4.43;2.67;;;;;;;14.49;97.65;100360.59;4976770;28;20242;-80
2022/10/25 07:51:19;;;;;;;4.93;3.53;;;;;;;14.54;97.96;100378.81;4990414;28;20243;-79
2022/10/25 07:53:46;;;;;;;6.30;3.50;;;;;;;14.58;97.55;100376.03;4995995;28;20564;-79
2022/10/25 07:56:14;;;;;;;5.13;4.57;;;;;;;14.58;97.58;100377.81;4995394;28;20219;-80
2022/10/25 07:58:40;;;;;;;8.63;4.30;;;;;;;14.60;96.59;100400.47;4995439;28;20233;-80
2022/10/25 08:01:09;;;;;;;5.33;4.23;;;;;;;14.61;95.89;100417.13;5006425;28;20205;-79
2022/10/25 08:03:36;;;;;;;4.40;3.63;;;;;;;14.58;97.45;100399.66;5015102;28;20230;-79
2022/10/25 08:06:03;;;;;;;4.20;3.80;;;;;;;14.21;96.93;100414.09;5013727;28;20216;-78
2022/10/25 08:08:31;;;;;;;5.47;4.00;;;;;;;14.25;97.70;100385.94;5014694;28;20228;-79
2022/10/25 08:10:58;;;;;;;5.40;3.93;;;;;;;14.34;98.43;100371.63;5013699;28;20201;-80
2022/10/25 08:13:25;;;;;;;6.70;3.90;;;;;;;14.39;97.88;100380.19;5014711;28;20641;-79
2022/10/25 08:15:52;;;;;;;5.00;3.90;;;;;;;14.37;97.74;100384.63;5014829;28;20207;-79
2022/10/25 08:18:20;;;;;;;6.33;4.77;;;;;;;14.27;97.43;100391.97;5014827;28;20742;-80
2022/10/25 08:20:46;;;;;;;4.77;3.93;;;;;;;14.13;96.46;100417.88;5013590;28;20207;-79
2022/10/25 08:23:13;;;;;;;5.90;5.30;;;;;;;14.21;96.99;100413.19;5013857;28;20232;-80
2022/10/25 08:25:40;;;;;;;7.70;4.53;;;;;;;14.36;98.68;100377.69;5013979;28;20559;-79
2022/10/25 08:28:06;;;;;;;7.53;5.17;;;;;;;14.38;97.86;100381.13;5013606;28;20740;-79
2022/10/25 08:30:34;;;;;;;6.73;4.63;;;;;;;14.30;97.08;100387.50;5000367;28;20251;-79
2022/10/25 08:33:01;;;;;;;6.10;4.27;;;;;;;14.37;96.76;100406.53;4994298;28;20220;-79
2022/10/25 08:35:29;;;;;;;5.87;5.10;;;;;;;14.31;97.25;100398.88;4994329;28;20230;-78
2022/10/25 08:37:55;;;;;;;5.73;4.40;;;;;;;14.33;97.55;100401.41;4993463;28;20579;-78
2022/10/25 08:40:25;;;;;;;7.13;4.77;;;;;;;14.34;98.37;100401.38;4993427;28;20586;-79
2022/10/25 08:43:02;;;;;;;6.13;4.60;;;;;;;14.36;96.86;100428.44;4995736;28;20224;-80
2022/10/25 08:45:36;;;;;;;5.03;4.20;;;;;;;14.48;96.39;100435.88;4995659;28;20203;-80
2022/10/25 08:48:10;;;;;;;6.37;4.80;;;;;;;14.48;95.87;100450.78;4993538;28;20272;-79
2022/10/25 08:50:42;;;;;;;6.37;5.07;;;;;;;14.52;96.29;100446.28;4992912;28;20319;-78
2022/10/25 08:53:16;;;;;;;5.60;5.10;;;;;;;14.61;95.32;100461.78;4993886;28;20679;-80
2022/10/25 08:55:43;;;;;;;6.30;5.70;;;;;;;14.62;93.77;100495.84;4995136;28;20646;-80
2022/10/25 08:58:17;;;;;;;6.50;4.77;;;;;;;14.56;93.53;100500.44;4996950;28;20606;-79
2022/10/25 09:00:45;;;;;;;6.70;4.93;;;;;;;14.62;93.03;100526.53;4996800;28;20707;-79
2022/10/25 09:03:15;;;;;;;6.43;4.60;;;;;;;14.54;92.04;100553.00;4996976;28;20233;-79
2022/10/25 09:05:56;;;;;;;5.83;5.20;;;;;;;14.47;91.50;100583.03;4997747;28;20212;-79
2022/10/25 09:08:58;;;;;;;6.93;5.10;;;;;;;14.52;91.88;100591.63;4997525;28;20232;-79
2022/10/25 09:11:35;;;;;;;5.37;4.97;;;;;;;14.59;91.67;100587.03;4996219;28;20234;-78
2022/10/25 09:14:08;;;;;;;5.70;5.10;;;;;;;14.60;91.47;100594.88;4996359;28;20308;-78
2022/10/25 09:16:41;;;;;;;5.03;4.63;;;;;;;14.52;91.10;100603.91;4996403;28;20214;-77
2022/10/25 09:19:15;;;;;;;5.23;4.50;;;;;;;14.38;91.25;100601.72;4996114;28;20692;-77
2022/10/25 09:21:49;;;;;;;5.37;4.87;;;;;;;14.44;91.54;100585.75;4995178;28;20598;-79
2022/10/25 09:24:21;;;;;;;7.20;4.77;;;;;;;14.51;92.30;100576.78;4989236;28;20747;-79
2022/10/25 09:26:58;;;;;;;4.90;4.47;;;;;;;14.51;91.59;100589.91;4987765;28;20211;-80
2022/10/25 09:29:30;;;;;;;5.03;4.57;;;;;;;14.47;91.00;100601.44;4996629;28;20212;-79
2022/10/25 09:31:59;;;;;;;5.30;4.80;;;;;;;14.48;91.55;100588.22;4995114;28;20205;-80
2022/10/25 09:34:31;;;;;;;6.90;4.30;;;;;;;14.51;91.58;100582.03;4996782;28;20205;-79
2022/10/25 09:37:06;;;;;;;4.87;3.90;;;;;;;14.53;91.20;100592.47;4997234;28;20234;-80
2022/10/25 09:39:38;;;;;;;4.47;4.07;;;;;;;14.53;90.27;100606.47;4997981;28;20212;-78
2022/10/25 09:42:07;;;;;;;5.23;4.73;;;;;;;14.57;89.92;100641.41;4995433;28;20220;-78
2022/10/25 09:44:38;;;;;;;4.40;4.03;;;;;;;14.58;89.55;100654.50;4995742;28;20263;-78
2022/10/25 09:47:19;;;;;;;5.43;4.53;;;;;;;14.57;88.82;100667.66;4995303;28;20240;-78
2022/10/25 09:49:52;;;;;;;6.13;5.40;;;;;;;14.63;87.93;100688.50;4995556;28;20219;-78
2022/10/25 09:52:26;;;;;;;5.40;4.90;;;;;;;14.69;88.87;100675.19;4995727;28;20213;-78
2022/10/25 09:54:54;;;;;;;6.47;5.40;;;;;;;14.65;88.68;100692.81;4995816;28;20621;-78
2022/10/25 09:57:21;;;;;;;6.67;6.07;;;;;;;14.69;88.72;100681.28;4995616;28;20256;-79
2022/10/25 09:59:50;;;;;;;7.10;6.47;;;;;;;14.63;88.61;100676.22;4995476;28;20689;-77
2022/10/25 10:02:22;;;;;;;7.03;6.33;;;;;;;14.72;89.13;100679.47;4995528;28;20213;-78
2022/10/25 10:04:48;;;;;;;7.50;6.90;;;;;;;14.80;89.32;100672.19;4995219;28;20715;-78
2022/10/25 10:07:20;;;;;;;9.30;7.50;;;;;;;14.80;88.98;100672.19;4993831;28;20263;-78
2022/10/25 10:09:50;;;;;;;7.87;7.27;;;;;;;14.91;89.30;100656.09;4994909;28;20205;-78
2022/10/25 10:12:22;;;;;;;7.03;6.33;;;;;;;14.85;88.11;100671.13;4995429;28;20722;-78
2022/10/25 10:14:56;;;;;;;6.93;5.50;;;;;;;14.90;88.52;100676.22;4997606;28;20699;-77
2022/10/25 10:17:24;;;;;;;6.70;5.97;;;;;;;14.99;88.47;100683.81;5001548;28;20329;-77
2022/10/25 10:20:13;;;;;;;6.90;5.63;;;;;;;14.95;88.23;100695.34;5002089;28;20673;-77
2022/10/25 10:22:46;;;;;;;6.33;5.10;;;;;;;15.06;88.75;100687.97;5001686;28;20265;-77
2022/10/25 10:25:21;;;;;;;8.30;5.30;;;;;;;15.04;88.16;100692.44;5001807;28;20239;-77
2022/10/25 10:27:50;;;;;;;5.90;5.13;;;;;;;15.04;88.51;100687.16;5001323;28;20236;-78
2022/10/25 10:30:23;;;;;;;6.50;5.30;;;;;;;15.01;88.01;100699.53;5000964;28;20217;-77
2022/10/25 10:32:54;;;;;;;5.27;4.77;;;;;;;15.03;87.72;100708.25;4994473;28;20228;-77
2022/10/25 10:35:32;;;;;;;7.03;6.00;;;;;;;15.03;87.57;100719.59;4996027;28;20240;-78
2022/10/25 10:38:28;;;;;;;4.50;4.10;;;;;;;14.90;84.59;100781.38;4994246;28;20241;-76
2022/10/25 10:41:13;;;;;;;4.53;4.13;;;;;;;14.93;84.74;100789.16;4914050;29;20264;-78
2022/10/25 10:43:40;;;;;;;5.80;5.20;;;;;;;15.03;84.96;100792.38;4983770;28;20230;-77
2022/10/25 10:46:10;;;;;;;6.43;5.37;;;;;;;14.94;85.08;100798.75;4985676;28;20209;-78
2022/10/25 10:48:41;;;;;;;6.53;5.97;;;;;;;15.07;86.25;100763.28;4982044;28;20229;-77
2022/10/25 10:53:36;;;;;;;5.27;4.57;;;;;;;15.32;86.80;100714.28;5014980;28;20667;-79
2022/10/25 10:56:06;;;;;;;3.90;3.60;;;;;;;15.38;85.90;100738.63;5017043;28;20216;-80
2022/10/25 10:58:34;;;;;;;4.97;4.43;;;;;;;15.24;83.29;100767.13;5017435;28;20202;-80
2022/10/25 11:01:02;;;;;;;5.43;4.93;;;;;;;15.26;82.66;100828.44;5017657;28;20233;-81
2022/10/25 11:03:45;;;;;;;5.57;4.47;;;;;;;15.41;83.60;100822.69;5017229;28;20701;-79
2022/10/25 11:06:16;;;;;;;5.57;5.13;;;;;;;15.50;83.85;100818.91;5016732;28;20208;-79
2022/10/25 11:08:44;;;;;;;4.67;4.03;;;;;;;15.45;82.07;100853.25;5017675;28;20212;-80
2022/10/25 11:11:18;;;;;;;6.90;4.30;;;;;;;15.49;83.20;100860.13;5016363;28;20234;-81
2022/10/25 11:13:52;;;;;;;5.30;4.87;;;;;;;15.48;83.45;100836.50;5017651;28;20237;-81
2022/10/25 11:16:43;;;;;;;7.43;4.87;;;;;;;15.38;82.80;100845.59;5016799;28;20268;-81
2022/10/25 11:19:31;;;;;;;5.93;5.40;;;;;;;15.29;83.36;100839.72;5016186;28;20211;-79
2022/10/25 11:22:29;;;;;;;7.80;4.90;;;;;;;15.30;84.28;100798.50;5015614;28;20205;-81
2022/10/25 11:25:09;;;;;;;6.17;4.87;;;;;;;15.41;83.52;100804.25;4982476;28;20236;-80
2022/10/25 11:27:51;;;;;;;9.63;5.43;;;;;;;15.58;84.01;100805.47;5015998;28;20216;-80
2022/10/25 11:30:19;;;;;;;6.57;5.37;;;;;;;15.66;83.75;100804.31;5015096;28;20229;-80
2022/10/25 11:33:15;;;;;;;5.00;4.60;;;;;;;15.75;83.46;100815.47;5015200;28;20208;-79
2022/10/25 11:36:04;;;;;;;5.50;4.93;;;;;;;15.71;82.72;100832.25;5015402;28;20214;-80